Flight Track Log - Related Links

Times and Time Zones

All times are in EDT time to prevent confusion due to time zone crossing. See the SKW5453 flight status page for this flight to view local times or setup timezone preferences in your user account.

Time Position Orientation Groundspeed Altitude Reporting Facility
EDT Latitude Longitude Course Direction KTS MPH feet Rate Location/Type
Thu 08:49:11 PM 37.6333 -120.9833 253° West 155 178 1,200  Level Northern Cal TRACON
Thu 08:50:17 PM 37.6167 -121.0500 253° West 187 215 3,500 2,048 Climbing Northern Cal TRACON
Thu 08:51:17 PM 37.6167 -121.1167 270° West 188 216 5,500 1,950 Climbing Northern Cal TRACON
Thu 08:52:00 PM 37.5696 -121.4073 262° West  Level FlightAware Approximate
Thu 08:52:17 PM 37.6000 -121.1833 253° West 201 231 7,400  Level Northern Cal TRACON
Thu 08:53:00 PM 37.5568 -121.5226 262° West  Level FlightAware Approximate
Thu 08:53:23 PM 37.6000 -121.2500 270° West 211 243 9,000  Level Northern Cal TRACON
Thu 08:54:00 PM 37.5448 -121.6375 253° West  Level FlightAware Approximate
Thu 08:54:17 PM 37.5833 -121.3333 256° West 248 285 9,000  Level Northern Cal TRACON
Thu 08:55:17 PM 37.5833 -121.4167 270° West 249 287 9,000  Level Northern Cal TRACON
Thu 08:56:17 PM 37.5667 -121.5167 258° West 247 284 9,000 50 Level Northern Cal TRACON
Thu 08:57:17 PM 37.5500 -121.6000 256° West 249 287 9,100  Climbing Northern Cal TRACON
Thu 08:58:17 PM 37.5667 -121.6667 288° West 242 278 9,000 -100 Descending Northern Cal TRACON
Thu 08:59:17 PM 37.6167 -121.7500 307° West 243 280 8,900  Descending Northern Cal TRACON
Thu 09:00:17 PM 37.5667 -121.8000 218° Southwest 251 289 9,000 -100 Climbing Northern Cal TRACON
Thu 09:01:17 PM 37.5167 -121.8333 208° Southwest 241 277 8,700 -524 Descending Northern Cal TRACON
Thu 09:02:23 PM 37.4667 -121.8833 218° Southwest 245 282 7,900 -500 Descending Northern Cal TRACON
Thu 09:03:17 PM 37.4833 -121.9500 288° West 215 247 7,700 -632 Descending Northern Cal TRACON
Thu 09:04:17 PM 37.5000 -122.0167 288° West 203 234 6,700 -1,000 Descending Northern Cal TRACON
Thu 09:05:17 PM 37.5333 -122.0833 302° West 198 228 5,700 -1,100 Descending Northern Cal TRACON
Thu 09:06:17 PM 37.5500 -122.1500 288° West 182 209 4,500 -1,091 Descending Northern Cal TRACON
Thu 09:07:18 PM 37.5667 -122.2000 293° West 171 197 3,500 -984 Descending Northern Cal TRACON

Login

Don't have an account? Register now (free) for customized features, flight alerts, and more!